createdAt,value
2022-08-01T00:00:08.729Z,4.57
2022-08-01T00:02:40.801Z,4.18
2022-08-01T00:05:09.085Z,5.72
2022-08-01T00:07:36.584Z,5.60
2022-08-01T00:10:14.364Z,6.78
2022-08-01T00:12:41.434Z,7.13
2022-08-01T00:15:10.088Z,7.22
2022-08-01T00:17:36.911Z,6.07
2022-08-01T00:20:06.063Z,4.80
2022-08-01T00:22:33.597Z,4.50
2022-08-01T00:25:00.777Z,5.63
2022-08-01T00:27:28.144Z,4.78
2022-08-01T00:30:14.026Z,6.20
2022-08-01T00:32:43.373Z,7.97
2022-08-01T00:35:11.213Z,9.30
2022-08-01T00:37:40.385Z,6.18
2022-08-01T00:40:08.549Z,7.75
2022-08-01T00:42:39.076Z,9.25
2022-08-01T00:45:08.889Z,8.30
2022-08-01T00:47:35.576Z,8.85
2022-08-01T00:50:04.690Z,8.60
2022-08-01T00:52:32.259Z,8.05
2022-08-01T00:54:59.085Z,8.52
2022-08-01T00:57:41.462Z,7.47
2022-08-01T01:00:13.677Z,8.35
2022-08-01T01:02:40.642Z,7.03
2022-08-01T01:05:08.005Z,6.72
2022-08-01T01:07:53.577Z,9.63
2022-08-01T01:10:48.841Z,8.95
2022-08-01T01:13:32.387Z,8.82
2022-08-01T01:16:25.703Z,9.70
2022-08-01T01:19:01.324Z,11.50
2022-08-01T01:21:43.256Z,10.60
2022-08-01T01:24:37.452Z,10.43
2022-08-01T01:27:07.264Z,14.50
2022-08-01T01:29:59.449Z,10.45
2022-08-01T01:32:35.021Z,12.25
2022-08-01T01:35:24.501Z,10.38
2022-08-01T01:37:55.279Z,9.75
2022-08-01T01:40:24.799Z,6.27
2022-08-01T01:42:52.690Z,7.32
2022-08-01T01:45:19.803Z,8.90
2022-08-01T01:47:47.507Z,9.30
2022-08-01T01:50:15.126Z,9.35
2022-08-01T01:52:44.971Z,10.32
2022-08-01T01:55:12.511Z,8.43
2022-08-01T01:57:42.399Z,10.27
2022-08-01T02:00:12.464Z,8.35
2022-08-01T02:02:40.353Z,9.43
2022-08-01T02:05:10.114Z,9.95
2022-08-01T02:07:38.427Z,8.13
2022-08-01T02:10:06.476Z,7.22
2022-08-01T02:12:37.287Z,7.28
2022-08-01T02:15:05.647Z,9.13
2022-08-01T02:17:33.540Z,6.47
2022-08-01T02:20:00.586Z,9.55
2022-08-01T02:22:32.077Z,6.45
2022-08-01T02:25:16.585Z,8.10
2022-08-01T02:27:48.644Z,5.50
2022-08-01T02:30:16.488Z,6.82
2022-08-01T02:32:47.431Z,6.10
2022-08-01T02:36:30.743Z,5.88
2022-08-01T02:38:32.523Z,5.20
2022-08-01T02:41:09.584Z,5.97
2022-08-01T02:43:39.820Z,5.65
2022-08-01T02:46:13.605Z,4.70
2022-08-01T02:48:43.220Z,5.07
2022-08-01T02:51:12.752Z,5.10
2022-08-01T02:53:44.576Z,4.70
2022-08-01T02:56:14.390Z,8.52
2022-08-01T02:58:42.880Z,6.47
2022-08-01T03:01:11.254Z,7.90
2022-08-01T03:03:38.883Z,5.32
2022-08-01T03:06:06.849Z,5.93
2022-08-01T03:08:35.701Z,6.28
2022-08-01T03:11:04.330Z,7.50
2022-08-01T03:13:33.404Z,11.35
2022-08-01T03:16:01.911Z,10.95
2022-08-01T03:18:29.990Z,7.43
2022-08-01T03:20:58.685Z,10.60
2022-08-01T03:23:37.931Z,9.07
2022-08-01T03:26:06.674Z,11.82
2022-08-01T03:28:33.755Z,10.52
2022-08-01T03:31:02.896Z,8.95
2022-08-01T03:33:30.222Z,10.95
2022-08-01T03:35:58.721Z,9.45
2022-08-01T03:38:28.041Z,8.48
2022-08-01T03:40:59.366Z,12.35
2022-08-01T03:43:37.595Z,10.65
2022-08-01T03:46:10.954Z,11.05
2022-08-01T03:48:49.360Z,9.95
2022-08-01T03:51:18.231Z,12.65
2022-08-01T03:53:46.723Z,12.68
2022-08-01T03:56:17.449Z,11.52
2022-08-01T03:58:45.245Z,11.15
2022-08-01T04:01:18.087Z,12.80
2022-08-01T04:03:45.374Z,12.00
2022-08-01T04:06:14.158Z,14.77
2022-08-01T04:08:41.360Z,11.50
2022-08-01T04:11:10.367Z,9.60
2022-08-01T04:13:38.258Z,11.07
2022-08-01T04:16:05.715Z,11.35
2022-08-01T04:18:33.057Z,10.98
2022-08-01T04:20:59.870Z,14.18
2022-08-01T04:23:28.475Z,12.80
2022-08-01T04:25:56.327Z,10.05
2022-08-01T04:28:24.273Z,10.25
2022-08-01T04:30:57.395Z,11.23
2022-08-01T04:33:30.891Z,11.25
2022-08-01T04:36:03.320Z,14.65
2022-08-01T04:38:34.269Z,12.55
2022-08-01T04:41:08.697Z,13.25
2022-08-01T04:43:39.549Z,15.65
2022-08-01T04:46:10.555Z,15.02
2022-08-01T04:48:39.448Z,14.30
2022-08-01T04:51:12.353Z,13.55
2022-08-01T04:53:39.041Z,12.38
2022-08-01T04:56:06.859Z,8.70
2022-08-01T04:58:33.619Z,12.30
2022-08-01T05:01:00.400Z,9.45
2022-08-01T05:03:27.178Z,17.05
2022-08-01T05:05:53.858Z,12.57
2022-08-01T05:08:20.569Z,14.57
2022-08-01T05:10:47.259Z,11.18
2022-08-01T05:13:13.950Z,14.02
2022-08-01T05:15:41.057Z,8.85
2022-08-01T05:18:08.668Z,10.48
2022-08-01T05:20:35.673Z,9.32
2022-08-01T05:23:03.004Z,12.00
2022-08-01T05:25:57.778Z,12.38
2022-08-01T05:28:19.007Z,11.80
2022-08-01T05:30:46.317Z,9.63
2022-08-01T05:33:13.034Z,13.13
2022-08-01T05:35:48.002Z,7.53
2022-08-01T05:38:16.330Z,14.65
2022-08-01T05:40:43.124Z,16.75
2022-08-01T05:43:09.877Z,14.00
2022-08-01T05:45:36.628Z,9.75
2022-08-01T05:48:03.396Z,17.63
2022-08-01T05:50:30.119Z,14.52
2022-08-01T05:52:56.830Z,12.05
2022-08-01T05:55:23.525Z,13.68
2022-08-01T05:57:50.268Z,17.90
2022-08-01T06:00:17.144Z,15.98
2022-08-01T06:02:44.357Z,14.60
2022-08-01T06:05:13.491Z,13.40
2022-08-01T06:07:41.069Z,16.73
2022-08-01T06:10:09.046Z,16.92
2022-08-01T06:12:36.488Z,16.85
2022-08-01T06:15:05.010Z,12.88
2022-08-01T06:17:31.835Z,14.68
2022-08-01T06:19:58.701Z,11.13
2022-08-01T06:22:25.695Z,15.68
2022-08-01T06:24:52.800Z,18.17
2022-08-01T06:27:21.606Z,16.17
2022-08-01T06:29:50.441Z,14.20
2022-08-01T06:32:26.467Z,20.08
2022-08-01T06:34:55.798Z,18.38
2022-08-01T06:37:23.236Z,17.98
2022-08-01T06:39:50.621Z,17.33
2022-08-01T06:42:18.198Z,17.40
2022-08-01T06:44:44.911Z,19.58
2022-08-01T06:47:11.688Z,22.15
2022-08-01T06:49:38.515Z,18.67
2022-08-01T06:52:05.853Z,16.52
2022-08-01T06:54:32.814Z,17.23
2022-08-01T06:56:59.555Z,20.20
2022-08-01T06:59:26.271Z,17.08
2022-08-01T07:01:53.008Z,15.10
2022-08-01T07:04:19.694Z,17.70
2022-08-01T07:06:46.513Z,15.02
2022-08-01T07:09:14.675Z,14.05
2022-08-01T07:11:41.884Z,12.35
2022-08-01T07:14:08.909Z,13.05
2022-08-01T07:16:36.081Z,15.27
2022-08-01T07:19:02.918Z,14.95
2022-08-01T07:21:40.497Z,16.75
2022-08-01T07:24:16.402Z,13.80
2022-08-01T07:26:53.923Z,16.30
2022-08-01T07:29:27.923Z,15.70
2022-08-01T07:31:56.719Z,15.80
2022-08-01T07:34:23.997Z,16.92
2022-08-01T07:36:51.256Z,17.00
2022-08-01T07:39:18.099Z,17.13
2022-08-01T07:41:52.690Z,14.30
2022-08-01T07:44:31.631Z,14.93
2022-08-01T07:46:58.310Z,13.02
2022-08-01T07:49:25.172Z,15.90
2022-08-01T07:52:03.294Z,15.20
2022-08-01T07:54:34.747Z,16.80
2022-08-01T07:57:03.180Z,16.33
2022-08-01T07:59:30.130Z,14.18
2022-08-01T08:01:57.680Z,10.35
2022-08-01T08:04:24.528Z,14.35
2022-08-01T08:06:51.268Z,10.00
2022-08-01T08:09:17.942Z,14.13
2022-08-01T08:11:47.816Z,13.95
2022-08-01T08:14:16.217Z,11.07
2022-08-01T08:16:43.798Z,8.68
2022-08-01T08:19:10.953Z,13.73
2022-08-01T08:21:38.728Z,11.60
2022-08-01T08:24:26.614Z,10.75
2022-08-01T08:26:58.712Z,10.52
2022-08-01T08:31:55.695Z,10.27
2022-08-01T08:34:24.577Z,10.75
2022-08-01T08:36:51.683Z,8.82
2022-08-01T08:39:19.731Z,8.88
2022-08-01T08:41:49.623Z,8.45
2022-08-01T08:44:18.249Z,8.45
2022-08-01T08:46:48.125Z,11.55
2022-08-01T08:49:21.620Z,10.30
2022-08-01T08:51:51.011Z,8.70
2022-08-01T08:54:21.668Z,8.73
2022-08-01T08:56:48.969Z,10.30
2022-08-01T08:59:15.761Z,9.57
2022-08-01T09:01:43.699Z,7.65
2022-08-01T09:04:11.189Z,8.95
2022-08-01T09:06:38.750Z,7.45
2022-08-01T09:09:06.924Z,8.07
2022-08-01T09:11:34.924Z,8.93
2022-08-01T09:14:12.205Z,8.00
2022-08-01T09:16:48.856Z,8.30
2022-08-01T09:19:40.122Z,5.90
2022-08-01T09:22:08.455Z,7.60
2022-08-01T09:24:36.564Z,6.65
2022-08-01T09:27:25.165Z,5.95
2022-08-01T09:30:00.810Z,5.95
2022-08-01T09:32:35.881Z,6.35
2022-08-01T09:35:30.139Z,4.40
2022-08-01T09:38:15.455Z,5.43
2022-08-01T09:41:01.892Z,4.35
2022-08-01T09:43:31.613Z,4.20
2022-08-01T09:46:00.654Z,4.00
2022-08-01T09:48:29.631Z,3.53
2022-08-01T09:51:04.580Z,4.82
2022-08-01T09:53:52.505Z,6.82
2022-08-01T09:56:22.518Z,5.15
2022-08-01T09:58:58.837Z,3.33
2022-08-01T10:01:38.606Z,3.38
2022-08-01T10:04:09.852Z,3.33
2022-08-01T10:06:38.151Z,2.92
2022-08-01T10:09:05.223Z,4.18
2022-08-01T10:11:36.546Z,3.17
2022-08-01T10:14:04.727Z,5.47
2022-08-01T10:16:32.963Z,3.30
2022-08-01T10:19:01.291Z,3.88
2022-08-01T10:21:56.601Z,4.50
2022-08-01T10:24:21.636Z,3.03
2022-08-01T10:27:08.316Z,4.85
2022-08-01T10:30:05.273Z,4.50
2022-08-01T10:32:36.642Z,4.43
2022-08-01T10:35:14.965Z,2.92
2022-08-01T10:37:52.418Z,2.63
2022-08-01T10:40:30.489Z,3.08
2022-08-01T10:42:58.740Z,2.70
2022-08-01T10:45:30.595Z,2.92
2022-08-01T10:48:25.569Z,2.92
2022-08-01T10:51:03.429Z,3.42
2022-08-01T10:53:31.668Z,5.03
2022-08-01T10:56:12.707Z,3.38
2022-08-01T10:58:44.198Z,9.10
2022-08-01T11:01:15.388Z,4.45
2022-08-01T11:04:01.116Z,2.67
2022-08-01T11:06:34.234Z,2.30
2022-08-01T11:09:05.783Z,3.05
2022-08-01T11:11:35.174Z,2.60
2022-08-01T11:14:10.414Z,3.17
2022-08-01T11:16:39.261Z,3.60
2022-08-01T11:19:09.431Z,2.97
2022-08-01T11:21:57.111Z,2.03
2022-08-01T11:24:57.791Z,2.05
2022-08-01T11:27:33.692Z,2.03
2022-08-01T11:30:09.430Z,2.10
2022-08-01T11:33:11.826Z,3.95
2022-08-01T11:35:58.841Z,1.73
2022-08-01T11:38:31.172Z,2.33
2022-08-01T11:41:17.508Z,2.60
2022-08-01T11:44:03.717Z,2.40
2022-08-01T11:46:49.728Z,1.98
2022-08-01T11:49:40.977Z,4.63
2022-08-01T11:52:43.330Z,2.50
2022-08-01T11:55:11.834Z,2.13
2022-08-01T11:57:43.551Z,1.65
2022-08-01T12:00:19.149Z,2.17
2022-08-01T12:02:47.522Z,1.63
2022-08-01T12:05:17.448Z,4.38
2022-08-01T12:07:46.843Z,1.70
2022-08-01T12:10:16.689Z,1.50
2022-08-01T12:12:52.263Z,1.60
2022-08-01T12:15:21.464Z,2.20
2022-08-01T12:17:58.979Z,2.75
2022-08-01T12:20:30.949Z,3.42
2022-08-01T12:23:00.277Z,1.50
2022-08-01T12:25:27.315Z,1.50
2022-08-01T12:27:56.523Z,1.52
2022-08-01T12:30:25.254Z,2.20
2022-08-01T12:32:54.484Z,2.20
2022-08-01T12:35:24.599Z,1.65
2022-08-01T12:37:52.292Z,1.55
2022-08-01T12:40:24.946Z,1.45
2022-08-01T12:43:00.405Z,3.38
2022-08-01T12:45:27.051Z,2.75
2022-08-01T12:47:55.046Z,1.40
2022-08-01T12:50:25.203Z,1.40
2022-08-01T12:52:52.727Z,2.13
2022-08-01T12:55:25.246Z,1.63
2022-08-01T12:58:16.177Z,1.75
2022-08-01T13:00:45.699Z,1.60
2022-08-01T13:03:18.030Z,1.70
2022-08-01T13:05:46.173Z,2.95
2022-08-01T13:08:29.943Z,1.50
2022-08-01T13:11:09.550Z,2.30
2022-08-01T13:13:43.141Z,3.40
2022-08-01T13:16:15.655Z,1.70
2022-08-01T13:18:55.177Z,1.95
2022-08-01T13:21:34.501Z,2.20
2022-08-01T13:24:17.244Z,1.95
2022-08-01T13:26:51.596Z,2.90
2022-08-01T13:29:21.903Z,3.78
2022-08-01T13:31:49.024Z,2.13
2022-08-01T13:34:16.469Z,1.92
2022-08-01T13:36:49.058Z,1.67
2022-08-01T13:39:35.027Z,1.95
2022-08-01T13:42:01.790Z,4.78
2022-08-01T13:44:28.522Z,3.35
2022-08-01T13:46:56.922Z,1.88
2022-08-01T13:49:24.418Z,3.08
2022-08-01T13:51:51.751Z,2.63
2022-08-01T13:54:19.174Z,3.28
2022-08-01T13:56:46.042Z,1.92
2022-08-01T13:59:13.430Z,2.35
2022-08-01T14:01:40.241Z,1.52
2022-08-01T14:04:07.515Z,1.60
2022-08-01T14:06:34.401Z,1.58
2022-08-01T14:09:01.425Z,2.95
2022-08-01T14:11:30.488Z,2.38
2022-08-01T14:14:04.599Z,1.50
2022-08-01T14:16:31.574Z,2.53
2022-08-01T14:18:58.389Z,1.98
2022-08-01T14:21:25.096Z,2.53
2022-08-01T14:23:51.829Z,1.40
2022-08-01T14:26:18.585Z,3.20
2022-08-01T14:28:45.289Z,1.65
2022-08-01T14:31:11.999Z,1.20
2022-08-01T14:33:38.738Z,2.10
2022-08-01T14:36:30.216Z,2.83
2022-08-01T14:38:52.553Z,1.75
2022-08-01T14:41:19.277Z,1.65
2022-08-01T14:43:45.982Z,1.80
2022-08-01T14:46:13.893Z,3.25
2022-08-01T14:48:40.731Z,2.15
2022-08-01T14:51:08.259Z,1.63
2022-08-01T14:53:38.492Z,1.75
2022-08-01T14:56:06.251Z,5.95
2022-08-01T14:58:33.669Z,3.47
2022-08-01T15:01:00.433Z,1.85
2022-08-01T15:03:27.683Z,2.92
2022-08-01T15:05:54.464Z,1.80
2022-08-01T15:08:21.153Z,2.10
2022-08-01T15:10:48.020Z,2.28
2022-08-01T15:13:14.732Z,3.65
2022-08-01T15:15:41.553Z,2.13
2022-08-01T15:18:08.304Z,1.75
2022-08-01T15:20:35.095Z,3.78
2022-08-01T15:23:01.910Z,1.60
2022-08-01T15:25:41.187Z,4.13
2022-08-01T15:28:12.678Z,1.70
2022-08-01T15:30:40.068Z,3.70
2022-08-01T15:33:07.559Z,2.85
2022-08-01T15:35:34.954Z,2.50
2022-08-01T15:38:01.794Z,1.80
2022-08-01T15:40:29.344Z,1.83
2022-08-01T15:42:56.339Z,1.92
2022-08-01T15:45:46.480Z,1.92
2022-08-01T15:48:09.974Z,3.35
2022-08-01T15:50:39.445Z,1.55
2022-08-01T15:53:06.855Z,1.60
2022-08-01T15:55:38.239Z,3.22
2022-08-01T15:58:05.871Z,3.78
2022-08-01T16:00:38.784Z,2.78
2022-08-01T16:03:07.561Z,2.72
2022-08-01T16:05:40.767Z,2.03
2022-08-01T16:08:11.317Z,2.13
2022-08-01T16:10:38.138Z,2.15
2022-08-01T16:13:07.474Z,1.85
2022-08-01T16:15:36.572Z,1.70
2022-08-01T16:18:05.540Z,2.58
2022-08-01T16:20:32.543Z,1.77
2022-08-01T16:22:59.373Z,2.45
2022-08-01T16:25:26.298Z,3.88
2022-08-01T16:27:53.257Z,2.72
2022-08-01T16:30:19.965Z,2.30
2022-08-01T16:32:53.297Z,1.73
2022-08-01T16:35:34.607Z,2.20
2022-08-01T16:38:03.864Z,1.98
2022-08-01T16:40:30.722Z,1.45
2022-08-01T16:42:58.512Z,1.52
2022-08-01T16:45:25.601Z,2.30
2022-08-01T16:47:52.363Z,1.70
2022-08-01T16:50:19.117Z,1.83
2022-08-01T16:52:54.874Z,2.38
2022-08-01T16:55:23.227Z,1.73
2022-08-01T16:57:51.222Z,2.90
2022-08-01T17:00:21.154Z,2.20
2022-08-01T17:02:49.662Z,1.30
2022-08-01T17:05:16.455Z,1.45
2022-08-01T17:07:43.206Z,1.25
2022-08-01T17:10:11.727Z,1.80
2022-08-01T17:12:39.472Z,1.33
2022-08-01T17:15:09.916Z,1.38
2022-08-01T17:17:36.655Z,1.67
2022-08-01T17:20:03.851Z,1.52
2022-08-01T17:22:30.586Z,3.35
2022-08-01T17:24:57.341Z,1.33
2022-08-01T17:27:24.036Z,1.20
2022-08-01T17:29:50.822Z,1.40
2022-08-01T17:32:17.536Z,1.20
2022-08-01T17:34:44.368Z,1.23
2022-08-01T17:37:11.208Z,1.25
2022-08-01T17:39:39.247Z,1.67
2022-08-01T17:42:07.361Z,1.30
2022-08-01T17:44:34.188Z,2.53
2022-08-01T17:47:00.998Z,2.47
2022-08-01T17:49:52.310Z,1.60
2022-08-01T17:52:14.602Z,1.25
2022-08-01T17:54:42.166Z,1.30
2022-08-01T17:57:10.249Z,1.42
2022-08-01T17:59:37.079Z,1.40
2022-08-01T18:02:04.360Z,1.30
2022-08-01T18:04:31.516Z,2.00
2022-08-01T18:07:00.916Z,2.33
2022-08-01T18:09:32.552Z,1.17
2022-08-01T18:12:02.066Z,1.13
2022-08-01T18:14:39.848Z,1.33
2022-08-01T18:17:11.292Z,1.20
2022-08-01T18:19:39.198Z,3.03
2022-08-01T18:22:15.616Z,1.35
2022-08-01T18:24:53.527Z,1.45
2022-08-01T18:27:20.454Z,1.23
2022-08-01T18:29:48.699Z,1.02
2022-08-01T18:32:15.838Z,0.95
2022-08-01T18:34:42.570Z,1.10
2022-08-01T18:37:12.239Z,1.75
2022-08-01T18:39:41.692Z,4.13
2022-08-01T18:42:10.870Z,1.30
2022-08-01T18:44:37.733Z,1.05
2022-08-01T18:47:05.266Z,2.13
2022-08-01T18:49:32.372Z,1.95
2022-08-01T18:52:00.265Z,1.20
2022-08-01T18:54:27.371Z,2.25
2022-08-01T18:56:54.111Z,1.17
2022-08-01T18:59:21.513Z,1.83
2022-08-01T19:01:48.392Z,1.48
2022-08-01T19:04:15.268Z,0.98
2022-08-01T19:06:42.415Z,1.20
2022-08-01T19:09:09.340Z,2.05
2022-08-01T19:11:36.704Z,2.13
2022-08-01T19:14:04.200Z,1.17
2022-08-01T19:16:31.609Z,1.10
2022-08-01T19:18:58.619Z,1.13
2022-08-01T19:21:25.481Z,2.90
2022-08-01T19:24:10.723Z,1.33
2022-08-01T19:26:39.048Z,1.75
2022-08-01T19:29:15.355Z,1.00
2022-08-01T19:31:45.594Z,1.88
2022-08-01T19:34:17.149Z,1.42
2022-08-01T19:36:47.463Z,1.23
2022-08-01T19:39:23.686Z,0.90
2022-08-01T19:41:52.000Z,1.35
2022-08-01T19:44:22.595Z,1.30
2022-08-01T19:46:50.408Z,1.40
2022-08-01T19:49:19.393Z,1.33
2022-08-01T19:51:57.307Z,1.65
2022-08-01T19:54:30.376Z,1.83
2022-08-01T19:57:01.861Z,3.88
2022-08-01T20:01:58.541Z,1.38
2022-08-01T20:04:26.357Z,1.80
2022-08-01T20:06:53.551Z,1.88
2022-08-01T20:09:21.212Z,1.85
2022-08-01T20:11:51.310Z,1.50
2022-08-01T20:14:21.867Z,1.77
2022-08-01T20:16:49.394Z,1.40
2022-08-01T20:19:17.502Z,1.70
2022-08-01T20:22:07.844Z,1.58
2022-08-01T20:24:41.963Z,1.20
2022-08-01T20:27:12.680Z,1.60
2022-08-01T20:29:40.756Z,2.17
2022-08-01T20:32:07.998Z,1.58
2022-08-01T20:34:39.525Z,1.55
2022-08-01T20:39:43.271Z,1.67
2022-08-01T20:42:11.217Z,4.00
2022-08-01T20:44:39.650Z,1.60
2022-08-01T20:47:06.530Z,1.75
2022-08-01T20:49:35.773Z,3.38
2022-08-01T20:52:12.147Z,2.05
2022-08-01T20:54:39.898Z,1.75
2022-08-01T20:57:20.220Z,1.67
2022-08-01T20:59:56.555Z,1.45
2022-08-01T21:02:26.680Z,1.60
2022-08-01T21:05:11.233Z,1.20
2022-08-01T21:07:37.923Z,2.80
2022-08-01T21:10:04.666Z,1.77
2022-08-01T21:12:44.813Z,2.20
2022-08-01T21:15:33.989Z,3.15
2022-08-01T21:18:19.602Z,2.10
2022-08-01T21:20:59.808Z,1.50
2022-08-01T21:23:52.014Z,3.22
2022-08-01T21:26:23.976Z,2.53
2022-08-01T21:34:02.820Z,2.90
2022-08-01T21:36:34.500Z,2.30
2022-08-01T21:42:04.631Z,4.55
2022-08-01T21:44:32.915Z,1.65
2022-08-01T21:47:00.628Z,1.75
2022-08-01T21:52:08.652Z,2.38
2022-08-01T21:55:04.059Z,2.30
2022-08-01T21:57:59.010Z,2.40
2022-08-01T22:03:19.928Z,6.05
2022-08-01T22:05:50.875Z,2.67
2022-08-01T22:08:44.786Z,4.30
2022-08-01T22:11:14.553Z,2.30
2022-08-01T22:13:42.069Z,3.53
2022-08-01T22:16:12.940Z,4.00
2022-08-01T22:18:39.832Z,3.17
2022-08-01T22:21:08.359Z,2.83
2022-08-01T22:23:36.693Z,3.60
2022-08-01T22:26:07.260Z,2.08
2022-08-01T22:28:36.229Z,3.08
2022-08-01T22:31:03.287Z,2.22
2022-08-01T22:33:30.691Z,3.20
2022-08-01T22:35:58.398Z,2.55
2022-08-01T22:38:25.170Z,1.70
2022-08-01T22:40:54.537Z,2.10
2022-08-01T22:43:44.307Z,1.67
2022-08-01T22:46:23.279Z,1.73
2022-08-01T22:48:53.615Z,1.77
2022-08-01T22:51:51.245Z,2.40
2022-08-01T22:54:28.636Z,1.50
2022-08-01T22:56:56.913Z,1.60
2022-08-01T22:59:42.510Z,2.22
2022-08-01T23:02:14.711Z,2.90
2022-08-01T23:07:18.912Z,2.25
2022-08-01T23:09:53.872Z,3.20
2022-08-01T23:12:22.914Z,3.03
2022-08-01T23:14:52.730Z,2.60
2022-08-01T23:17:27.297Z,4.22
2022-08-01T23:19:58.843Z,3.13
2022-08-01T23:22:30.238Z,11.07
2022-08-01T23:25:04.149Z,3.67
2022-08-01T23:27:51.539Z,3.08
2022-08-01T23:32:51.947Z,2.47
2022-08-01T23:35:18.712Z,2.83
2022-08-01T23:37:45.455Z,2.90
2022-08-01T23:40:12.633Z,2.88
2022-08-01T23:42:39.480Z,3.58
2022-08-01T23:45:07.138Z,3.55
2022-08-01T23:47:33.857Z,1.75
2022-08-01T23:50:00.561Z,2.40
2022-08-01T23:52:32.523Z,3.35
2022-08-01T23:55:08.666Z,4.70
2022-08-01T23:57:42.308Z,4.18
